Time;durP1;ratioP1;P1;durP2;ratioP2;P2;SDS_P1;SDS_P2;PMS_P1;PMS_P2;Temp;Humidity;BMP_temperature;BMP_pressure;BME280_temperature;BME280_humidity;BME280_pressure;Samples;Min_cycle;Max_cycle;Signal;HPM_P1;HPM_P2
2024/01/09 00:01:33;;;;;;;13.80;6.60;;;;;;;-8.47;76.23;102399.08;107056;1256;97867;-64
2024/01/09 00:04:02;;;;;;;16.40;6.70;;;;;;;-8.54;76.00;102404.73;107056;1257;112192;-65
2024/01/09 00:06:30;;;;;;;16.00;7.40;;;;;;;-8.58;75.81;102409.19;107181;1257;107514;-63
2024/01/09 00:08:58;;;;;;;14.40;7.00;;;;;;;-8.61;75.60;102415.21;107146;1258;108465;-64
2024/01/09 00:11:27;;;;;;;13.50;7.20;;;;;;;-8.65;75.25;102416.89;107228;1256;97841;-64
2024/01/09 00:13:56;;;;;;;16.20;6.70;;;;;;;-8.74;74.26;102426.64;107083;1256;97791;-64
2024/01/09 00:16:24;;;;;;;14.20;7.40;;;;;;;-8.76;74.75;102428.35;107275;1257;111341;-63
2024/01/09 00:18:55;;;;;;;11.00;5.70;;;;;;;-8.77;74.76;102434.77;107098;1257;107042;-63
2024/01/09 00:21:24;;;;;;;14.30;6.90;;;;;;;-8.81;74.44;102439.56;107038;1257;107898;-63
2024/01/09 00:23:53;;;;;;;17.60;8.20;;;;;;;-8.82;74.34;102440.93;107034;1258;97945;-63
2024/01/09 00:26:21;;;;;;;13.60;6.10;;;;;;;-8.88;74.07;102450.23;107329;1256;98433;-65
2024/01/09 00:28:50;;;;;;;15.00;7.70;;;;;;;-8.92;74.26;102459.01;107289;1257;110354;-62
2024/01/09 00:31:18;;;;;;;13.20;6.20;;;;;;;-8.98;73.72;102461.67;107286;1257;108005;-65
2024/01/09 00:33:47;;;;;;;12.10;6.60;;;;;;;-9.05;73.67;102469.36;107287;1257;108340;-65
2024/01/09 00:36:15;;;;;;;9.80;5.80;;;;;;;-9.09;73.42;102471.17;107050;1257;98098;-64
2024/01/09 00:38:44;;;;;;;14.00;7.10;;;;;;;-9.17;72.69;102477.63;107077;1257;99599;-63
2024/01/09 00:41:12;;;;;;;13.00;6.50;;;;;;;-9.26;72.60;102485.61;107286;1256;111921;-63
2024/01/09 00:43:41;;;;;;;11.70;6.80;;;;;;;-9.34;72.50;102494.65;107269;1257;108467;-63
2024/01/09 00:46:09;;;;;;;10.20;6.10;;;;;;;-9.37;72.86;102500.16;107232;1257;107219;-63
2024/01/09 00:48:37;;;;;;;14.30;6.30;;;;;;;-9.39;72.29;102503.23;107255;1256;97836;-64
2024/01/09 00:51:06;;;;;;;12.70;6.80;;;;;;;-9.41;72.37;102505.45;107303;1257;97726;-64
2024/01/09 00:53:34;;;;;;;9.20;5.40;;;;;;;-9.39;72.67;102508.27;107073;1257;111900;-65
2024/01/09 00:56:03;;;;;;;15.50;6.10;;;;;;;-9.41;72.05;102517.60;107031;1257;107951;-64
2024/01/09 00:58:32;;;;;;;13.40;6.50;;;;;;;-9.41;72.33;102523.67;107043;1257;107079;-63
2024/01/09 01:01:00;;;;;;;13.00;6.00;;;;;;;-9.40;72.48;102521.61;107072;1260;97829;-64
2024/01/09 01:03:29;;;;;;;13.70;5.60;;;;;;;-9.41;72.45;102520.73;107308;1255;97745;-64
2024/01/09 01:05:57;;;;;;;6.30;3.80;;;;;;;-9.40;72.25;102526.67;107288;1257;110880;-63
2024/01/09 01:08:26;;;;;;;12.50;5.60;;;;;;;-9.42;71.76;102527.31;107216;1256;108503;-64
2024/01/09 01:10:54;;;;;;;8.60;5.30;;;;;;;-9.46;71.77;102527.23;107126;1257;107361;-63
2024/01/09 01:13:22;;;;;;;13.40;6.00;;;;;;;-9.48;71.55;102532.04;107123;1256;97854;-64
2024/01/09 01:15:50;;;;;;;11.00;5.90;;;;;;;-9.52;71.59;102532.64;107129;1256;97953;-65
2024/01/09 01:18:19;;;;;;;11.40;6.40;;;;;;;-9.53;71.82;102536.45;107083;1258;112084;-65
2024/01/09 01:20:47;;;;;;;11.50;5.60;;;;;;;-9.52;71.82;102541.86;107295;1259;108353;-63
2024/01/09 01:23:16;;;;;;;8.60;4.90;;;;;;;-9.51;71.94;102540.32;107270;1255;107921;-64
2024/01/09 01:25:45;;;;;;;8.90;6.10;;;;;;;-9.59;71.01;102553.34;107168;1257;97932;-65
2024/01/09 01:28:13;;;;;;;11.40;5.80;;;;;;;-9.66;70.79;102558.39;107054;1257;97916;-63
2024/01/09 01:30:42;;;;;;;10.80;5.50;;;;;;;-9.66;71.31;102564.98;107044;1257;111488;-63
2024/01/09 01:33:10;;;;;;;8.70;5.20;;;;;;;-9.70;70.67;102566.96;107335;1254;107754;-63
2024/01/09 01:35:38;;;;;;;11.30;5.20;;;;;;;-9.75;70.81;102570.16;107293;1259;107352;-64
2024/01/09 01:38:07;;;;;;;10.60;5.30;;;;;;;-9.84;69.81;102576.85;107266;1256;97848;-64
2024/01/09 01:40:35;;;;;;;10.00;4.60;;;;;;;-9.94;70.07;102578.88;107057;1256;97857;-66
2024/01/09 01:43:05;;;;;;;10.50;5.10;;;;;;;-9.99;70.51;102576.83;107210;1256;111938;-64
2024/01/09 01:45:33;;;;;;;8.60;4.70;;;;;;;-9.99;70.76;102578.04;107064;1254;107789;-63
2024/01/09 01:48:03;;;;;;;8.40;4.70;;;;;;;-10.00;70.65;102585.83;107306;1258;107273;-65
2024/01/09 01:50:33;;;;;;;11.30;4.90;;;;;;;-10.05;70.50;102591.77;107321;1254;97906;-63
2024/01/09 01:53:04;;;;;;;12.60;5.50;;;;;;;-10.09;70.48;102594.65;107370;1254;97847;-64
2024/01/09 01:55:33;;;;;;;10.40;5.10;;;;;;;-10.14;70.22;102593.63;107306;1256;110864;-63
2024/01/09 01:58:03;;;;;;;10.40;5.50;;;;;;;-10.20;69.89;102595.23;107318;1257;107787;-63
2024/01/09 02:00:32;;;;;;;16.80;5.60;;;;;;;-10.27;69.56;102596.94;107234;1256;107664;-65
2024/01/09 02:03:01;;;;;;;10.30;5.20;;;;;;;-10.33;69.48;102600.59;107137;1256;97839;-63
2024/01/09 02:05:31;;;;;;;14.10;5.30;;;;;;;-10.39;69.56;102599.94;107033;1256;97748;-64
2024/01/09 02:08:02;;;;;;;13.60;5.70;;;;;;;-10.40;69.86;102605.81;107150;1257;112189;-65
2024/01/09 02:10:31;;;;;;;10.00;4.90;;;;;;;-10.41;69.60;102611.17;107128;1256;108435;-65
2024/01/09 02:12:59;;;;;;;9.30;5.70;;;;;;;-10.38;70.06;102613.14;107136;1259;107913;-64
2024/01/09 02:15:28;;;;;;;11.30;5.20;;;;;;;-10.38;69.52;102620.10;107271;1254;97811;-66
2024/01/09 02:17:56;;;;;;;10.30;4.40;;;;;;;-10.37;69.82;102622.02;107242;1259;97844;-64
2024/01/09 02:20:25;;;;;;;9.20;4.50;;;;;;;-10.37;69.87;102627.91;107335;1254;110507;-64
2024/01/09 02:22:53;;;;;;;10.80;4.30;;;;;;;-10.37;69.48;102630.69;107176;1254;108977;-64
2024/01/09 02:25:21;;;;;;;9.00;4.40;;;;;;;-10.39;69.42;102634.11;107315;1254;107630;-64
2024/01/09 02:27:58;;;;;;;8.20;4.10;;;;;;;-10.40;69.73;102638.61;107306;1254;97829;-67
2024/01/09 02:30:27;;;;;;;12.00;4.80;;;;;;;-10.39;69.83;102638.98;107365;1254;97873;-65
2024/01/09 02:32:57;;;;;;;13.70;6.20;;;;;;;-10.39;69.76;102643.82;107374;1259;112076;-65
2024/01/09 02:35:26;;;;;;;11.20;4.80;;;;;;;-10.39;69.98;102649.38;107347;1257;108841;-64
2024/01/09 02:37:54;;;;;;;9.70;5.50;;;;;;;-10.38;69.86;102654.09;107306;1257;107828;-64
2024/01/09 02:40:22;;;;;;;11.00;4.70;;;;;;;-10.40;69.62;102663.77;107071;1256;97895;-63
2024/01/09 02:42:52;;;;;;;10.10;4.90;;;;;;;-10.38;70.07;102665.71;107312;1256;97716;-64
2024/01/09 02:45:20;;;;;;;8.20;4.60;;;;;;;-10.40;69.32;102666.72;107152;1254;110532;-64
2024/01/09 02:47:48;;;;;;;9.20;4.90;;;;;;;-10.43;69.40;102671.28;107169;1254;107950;-64
2024/01/09 02:50:17;;;;;;;11.70;5.60;;;;;;;-10.44;69.63;102676.82;107289;1256;108400;-65
2024/01/09 02:52:46;;;;;;;10.40;5.40;;;;;;;-10.43;69.40;102679.27;107139;1256;97836;-65
2024/01/09 02:55:15;;;;;;;9.80;5.40;;;;;;;-10.47;69.19;102686.61;107151;1256;98392;-64
2024/01/09 02:57:43;;;;;;;10.00;5.40;;;;;;;-10.51;69.31;102688.76;107115;1256;111789;-65
2024/01/09 03:00:12;;;;;;;10.40;5.80;;;;;;;-10.61;68.27;102696.98;107065;1257;108817;-65
2024/01/09 03:02:42;;;;;;;14.80;5.50;;;;;;;-10.70;68.75;102705.02;107346;1257;106158;-64
2024/01/09 03:05:10;;;;;;;10.40;5.10;;;;;;;-10.68;69.16;102708.88;107281;1257;97844;-66
2024/01/09 03:07:39;;;;;;;11.10;4.80;;;;;;;-10.66;69.25;102710.68;107335;1255;98494;-66
2024/01/09 03:10:09;;;;;;;10.50;6.20;;;;;;;-10.69;68.98;102711.98;107344;1256;111264;-66
2024/01/09 03:12:37;;;;;;;16.30;5.70;;;;;;;-10.74;68.92;102715.46;107301;1254;107631;-65
2024/01/09 03:15:06;;;;;;;11.40;4.70;;;;;;;-10.74;69.04;102719.80;107171;1254;107790;-65
2024/01/09 03:17:34;;;;;;;18.20;8.20;;;;;;;-10.84;68.08;102725.20;107050;1256;97854;-66
2024/01/09 03:20:05;;;;;;;13.40;5.50;;;;;;;-10.99;68.10;102728.55;107361;1258;97825;-65
2024/01/09 03:22:33;;;;;;;19.50;7.80;;;;;;;-11.15;67.88;102731.86;107381;1254;111026;-65
2024/01/09 03:25:02;;;;;;;15.60;6.70;;;;;;;-11.23;68.04;102734.37;107247;1256;105693;-66
2024/01/09 03:27:31;;;;;;;22.90;7.30;;;;;;;-11.35;67.81;102740.20;107217;1254;107618;-65
2024/01/09 03:29:59;;;;;;;13.20;5.50;;;;;;;-11.46;67.86;102750.73;107372;1254;98288;-64
2024/01/09 03:32:28;;;;;;;16.40;6.10;;;;;;;-11.60;67.68;102749.21;107348;1254;97838;-65
2024/01/09 03:34:56;;;;;;;15.60;6.40;;;;;;;-11.71;68.05;102759.23;107301;1257;111462;-66
2024/01/09 03:37:24;;;;;;;14.50;6.50;;;;;;;-11.80;68.25;102758.39;107286;1257;108277;-65
2024/01/09 03:39:53;;;;;;;11.80;5.80;;;;;;;-11.78;68.58;102765.20;107131;1257;109171;-64
2024/01/09 03:42:21;;;;;;;17.60;6.70;;;;;;;-11.83;68.65;102773.16;107227;1257;97829;-65
2024/01/09 03:44:49;;;;;;;11.40;5.20;;;;;;;-11.88;68.69;102774.36;107289;1256;97854;-66
2024/01/09 03:47:18;;;;;;;16.50;6.40;;;;;;;-11.88;68.61;102781.81;107203;1256;111281;-65
2024/01/09 03:49:46;;;;;;;13.80;4.40;;;;;;;-11.96;68.79;102783.44;107278;1257;108092;-65
2024/01/09 03:52:14;;;;;;;11.50;5.40;;;;;;;-11.99;68.87;102791.33;107305;1257;107858;-65
2024/01/09 03:54:43;;;;;;;8.60;5.20;;;;;;;-11.99;68.74;102795.15;107273;1257;97918;-65
2024/01/09 03:57:11;;;;;;;9.00;4.90;;;;;;;-12.00;68.98;102801.82;107362;1254;97780;-66
2024/01/09 03:59:42;;;;;;;11.70;6.00;;;;;;;-12.05;68.70;102805.09;107124;1256;111235;-66
2024/01/09 04:02:10;;;;;;;16.60;6.60;;;;;;;-12.14;68.25;102817.38;107302;1257;108629;-64
2024/01/09 04:04:38;;;;;;;13.60;5.80;;;;;;;-12.16;69.04;102822.70;107327;1255;106911;-65
2024/01/09 04:07:07;;;;;;;14.80;6.40;;;;;;;-12.21;69.13;102827.86;107248;1257;97889;-66
2024/01/09 04:09:37;;;;;;;11.80;5.30;;;;;;;-12.26;68.85;102832.48;107258;1256;98444;-69
2024/01/09 04:12:06;;;;;;;11.30;6.20;;;;;;;-12.35;68.75;102847.38;107052;1257;110351;-64
2024/01/09 04:14:34;;;;;;;10.80;5.90;;;;;;;-12.42;69.10;102852.29;107316;1257;107487;-66
2024/01/09 04:17:05;;;;;;;11.20;5.80;;;;;;;-12.50;68.91;102851.81;107165;1256;107792;-65
2024/01/09 04:19:37;;;;;;;16.50;6.60;;;;;;;-12.56;68.89;102861.95;107167;1256;97852;-64
2024/01/09 04:22:08;;;;;;;12.20;6.60;;;;;;;-12.58;69.43;102863.56;107198;1256;98373;-63
2024/01/09 04:24:36;;;;;;;9.90;5.00;;;;;;;-12.59;69.53;102869.44;107191;1254;111768;-65
2024/01/09 04:27:05;;;;;;;16.50;7.20;;;;;;;-12.64;69.06;102869.73;107363;1254;108165;-64
2024/01/09 04:29:33;;;;;;;11.40;5.60;;;;;;;-12.66;69.60;102871.55;107328;1258;108380;-65
2024/01/09 04:32:02;;;;;;;16.00;6.90;;;;;;;-12.63;69.86;102872.89;107298;1256;97726;-65
2024/01/09 04:34:30;;;;;;;11.00;5.50;;;;;;;-12.59;69.63;102875.81;107296;1256;98172;-63
2024/01/09 04:36:59;;;;;;;12.60;5.90;;;;;;;-12.63;69.27;102877.57;107298;1259;112189;-65
2024/01/09 04:39:27;;;;;;;13.30;5.50;;;;;;;-12.65;69.39;102891.28;107295;1254;108367;-63
2024/01/09 04:41:56;;;;;;;13.30;6.20;;;;;;;-12.68;69.43;102901.38;107340;1254;107854;-63
2024/01/09 04:44:25;;;;;;;13.10;6.10;;;;;;;-12.72;69.24;102902.43;107337;1254;97911;-65
2024/01/09 04:46:53;;;;;;;12.20;6.40;;;;;;;-12.80;68.99;102907.29;107172;1254;98381;-65
2024/01/09 04:49:21;;;;;;;22.00;6.30;;;;;;;-12.83;69.28;102917.50;107316;1256;112173;-64
2024/01/09 04:51:51;;;;;;;14.90;5.60;;;;;;;-12.88;69.15;102920.05;107179;1256;108728;-65
2024/01/09 04:54:19;;;;;;;15.30;6.00;;;;;;;-12.94;69.29;102927.40;107291;1259;108020;-63
2024/01/09 04:56:47;;;;;;;17.50;5.30;;;;;;;-12.96;69.24;102932.52;107353;1254;97848;-66
2024/01/09 04:59:16;;;;;;;17.20;6.40;;;;;;;-13.00;69.24;102939.56;107331;1258;97733;-64
2024/01/09 05:01:49;;;;;;;11.90;5.60;;;;;;;-13.07;69.24;102945.68;107331;1256;111680;-64
2024/01/09 05:04:17;;;;;;;12.60;6.20;;;;;;;-13.09;69.51;102950.42;107305;1256;108573;-64
2024/01/09 05:06:45;;;;;;;19.30;7.10;;;;;;;-13.13;69.40;102951.27;107224;1257;107142;-63
2024/01/09 05:09:14;;;;;;;13.30;5.60;;;;;;;-13.23;69.03;102958.78;107324;1254;98455;-63
2024/01/09 05:11:43;;;;;;;13.80;6.00;;;;;;;-13.32;69.28;102958.75;107312;1255;97728;-64
2024/01/09 05:14:11;;;;;;;16.60;6.30;;;;;;;-13.38;69.46;102962.11;107310;1256;111627;-63
2024/01/09 05:16:39;;;;;;;12.80;6.30;;;;;;;-13.40;69.56;102966.36;107300;1256;108538;-67
2024/01/09 05:19:08;;;;;;;19.40;8.30;;;;;;;-13.43;69.64;102973.64;107275;1255;108051;-65
2024/01/09 05:21:36;;;;;;;19.60;7.10;;;;;;;-13.46;69.73;102979.88;107267;1256;97977;-65
2024/01/09 05:24:05;;;;;;;16.30;6.60;;;;;;;-13.52;69.81;102986.52;107165;1256;97758;-65
2024/01/09 05:26:33;;;;;;;14.20;6.30;;;;;;;-13.48;70.40;102987.58;107273;1256;111323;-63
2024/01/09 05:29:02;;;;;;;29.10;11.20;;;;;;;-13.39;70.22;102989.70;107084;1256;107700;-63
2024/01/09 05:31:31;;;;;;;16.70;7.80;;;;;;;-13.32;70.31;102995.65;107151;1256;108575;-64
2024/01/09 05:33:59;;;;;;;14.00;6.20;;;;;;;-13.26;70.31;103001.63;107156;1257;97831;-64
2024/01/09 05:36:28;;;;;;;17.60;6.80;;;;;;;-13.23;69.98;103001.96;107284;1257;97784;-65
2024/01/09 05:38:56;;;;;;;27.80;9.10;;;;;;;-13.18;70.36;103002.89;107269;1257;113180;-65
2024/01/09 05:41:24;;;;;;;13.30;6.10;;;;;;;-13.10;70.51;103006.54;107249;1257;107681;-64
2024/01/09 05:43:53;;;;;;;18.50;6.60;;;;;;;-13.05;70.37;103003.64;107288;1256;108162;-65
2024/01/09 05:46:22;;;;;;;10.90;5.40;;;;;;;-13.03;70.23;103005.26;107283;1255;97820;-66
2024/01/09 05:48:50;;;;;;;17.30;5.90;;;;;;;-13.01;70.16;103007.23;107322;1259;97934;-66
2024/01/09 05:51:19;;;;;;;11.60;4.20;;;;;;;-13.00;70.21;103011.28;107265;1257;111501;-65
2024/01/09 05:53:47;;;;;;;8.30;4.90;;;;;;;-13.02;69.85;103015.33;107293;1259;107904;-66
2024/01/09 05:56:19;;;;;;;11.70;5.30;;;;;;;-13.06;69.96;103029.35;107197;1257;108171;-65
2024/01/09 05:58:47;;;;;;;16.80;6.10;;;;;;;-13.09;69.42;103032.86;107290;1257;97861;-65
2024/01/09 06:01:16;;;;;;;13.40;5.30;;;;;;;-13.07;69.66;103040.67;107191;1257;97024;-65
2024/01/09 06:03:44;;;;;;;10.50;5.50;;;;;;;-13.04;69.92;103045.98;107310;1256;111472;-65
2024/01/09 06:06:13;;;;;;;15.60;6.00;;;;;;;-13.01;69.96;103055.27;107132;1257;108533;-63
2024/01/09 06:08:41;;;;;;;13.60;7.20;;;;;;;-13.02;70.07;103061.44;107326;1259;107843;-64
2024/01/09 06:11:10;;;;;;;17.90;7.00;;;;;;;-13.01;69.69;103063.73;107243;1257;98060;-67
2024/01/09 06:13:38;;;;;;;14.70;7.10;;;;;;;-13.07;69.22;103074.69;107292;1255;97745;-66
2024/01/09 06:16:07;;;;;;;16.80;6.50;;;;;;;-13.19;68.73;103077.96;107115;1257;111296;-65
2024/01/09 06:18:36;;;;;;;13.60;6.40;;;;;;;-13.26;68.28;103079.68;107247;1256;108072;-65
2024/01/09 06:21:05;;;;;;;17.60;7.10;;;;;;;-13.30;68.94;103084.19;107301;1257;108063;-64
2024/01/09 06:23:33;;;;;;;21.80;6.90;;;;;;;-13.31;68.71;103088.96;107268;1256;97855;-65
2024/01/09 06:26:02;;;;;;;16.90;6.50;;;;;;;-13.32;68.41;103093.05;107293;1255;97825;-65
2024/01/09 06:28:31;;;;;;;15.40;6.80;;;;;;;-13.41;68.10;103097.88;107385;1256;111699;-65
2024/01/09 06:31:00;;;;;;;20.80;7.30;;;;;;;-13.46;68.38;103106.25;107305;1257;108282;-66
2024/01/09 06:33:29;;;;;;;17.10;7.80;;;;;;;-13.41;68.80;103108.89;107268;1256;108204;-66
2024/01/09 06:35:57;;;;;;;14.40;6.00;;;;;;;-13.41;68.31;103115.79;107196;1256;97845;-63
2024/01/09 06:38:26;;;;;;;23.30;7.30;;;;;;;-13.41;68.40;103119.60;107002;1256;97735;-67
2024/01/09 06:40:55;;;;;;;14.50;6.80;;;;;;;-13.35;68.50;103129.37;107220;1256;111184;-64
2024/01/09 06:43:23;;;;;;;16.40;7.40;;;;;;;-13.34;68.41;103130.08;107200;1257;107936;-65
2024/01/09 06:45:51;;;;;;;20.20;7.00;;;;;;;-13.34;67.74;103140.09;107172;1256;107817;-66
2024/01/09 06:48:19;;;;;;;13.30;7.20;;;;;;;-13.38;67.82;103147.00;107118;1256;97723;-64
2024/01/09 06:50:48;;;;;;;14.60;7.30;;;;;;;-13.37;67.68;103148.42;107224;1256;97985;-64
2024/01/09 06:53:16;;;;;;;16.60;7.40;;;;;;;-13.38;67.44;103150.63;107318;1257;111515;-65
2024/01/09 06:55:45;;;;;;;17.70;6.70;;;;;;;-13.34;67.88;103165.11;107278;1259;108329;-65
2024/01/09 06:58:16;;;;;;;21.00;7.80;;;;;;;-13.29;67.81;103169.85;107264;1257;107890;-64
2024/01/09 07:00:45;;;;;;;25.30;8.70;;;;;;;-13.22;68.31;103176.77;107290;1257;97967;-64
2024/01/09 07:03:13;;;;;;;22.70;8.80;;;;;;;-13.14;68.22;103183.88;107033;1256;97753;-64
2024/01/09 07:05:42;;;;;;;21.20;8.10;;;;;;;-13.14;67.02;103178.34;106966;1257;112306;-65
2024/01/09 07:08:11;;;;;;;24.20;9.90;;;;;;;-13.19;67.03;103181.23;107268;1256;108167;-63
2024/01/09 07:10:39;;;;;;;20.90;8.80;;;;;;;-13.23;66.32;103184.67;107234;1257;108458;-64
2024/01/09 07:13:08;;;;;;;19.30;8.10;;;;;;;-13.30;66.11;103187.45;107268;1256;97844;-65
2024/01/09 07:15:36;;;;;;;21.40;8.80;;;;;;;-13.32;66.58;103192.54;107306;1256;97742;-64
2024/01/09 07:18:05;;;;;;;14.40;7.40;;;;;;;-13.23;67.08;103197.13;107312;1256;111845;-66
2024/01/09 07:20:34;;;;;;;15.00;6.90;;;;;;;-13.17;67.06;103201.90;107270;1257;108199;-64
2024/01/09 07:23:02;;;;;;;19.60;8.10;;;;;;;-13.11;67.09;103199.22;107248;1256;107329;-64
2024/01/09 07:25:44;;;;;;;24.60;8.80;;;;;;;-13.09;66.39;103204.50;107251;1255;97836;-65
2024/01/09 07:28:12;;;;;;;20.60;8.30;;;;;;;-13.07;66.33;103204.95;107289;1256;97739;-67
2024/01/09 07:30:41;;;;;;;22.60;9.90;;;;;;;-13.01;66.58;103204.52;107318;1257;111371;-66
2024/01/09 07:33:09;;;;;;;17.00;7.50;;;;;;;-12.96;66.08;103206.50;107285;1254;108398;-64
2024/01/09 07:35:38;;;;;;;19.40;7.80;;;;;;;-12.95;65.95;103204.82;107149;1262;108696;-63
2024/01/09 07:38:07;;;;;;;19.10;8.70;;;;;;;-12.96;65.70;103210.48;107190;1256;97855;-65
2024/01/09 07:40:35;;;;;;;18.90;9.30;;;;;;;-12.90;65.96;103215.08;107229;1256;97874;-64
2024/01/09 07:43:03;;;;;;;22.90;8.70;;;;;;;-12.87;65.60;103223.00;107165;1256;111932;-66
2024/01/09 07:45:31;;;;;;;19.20;9.60;;;;;;;-12.77;65.98;103229.66;107207;1256;107396;-66
2024/01/09 07:48:00;;;;;;;17.70;8.20;;;;;;;-12.75;65.79;103230.66;107211;1256;108318;-64
2024/01/09 07:50:30;;;;;;;17.70;7.60;;;;;;;-12.76;65.12;103235.09;107204;1256;97838;-64
2024/01/09 07:52:58;;;;;;;20.80;8.10;;;;;;;-12.81;65.02;103234.02;107233;1254;98516;-62
2024/01/09 07:55:29;;;;;;;23.50;9.20;;;;;;;-12.73;65.35;103241.83;107258;1255;111176;-64
2024/01/09 07:57:59;;;;;;;18.30;8.40;;;;;;;-12.71;64.77;103253.46;107249;1256;108394;-66
2024/01/09 08:00:28;;;;;;;29.60;13.20;;;;;;;-12.69;64.88;103252.90;107275;1257;107653;-64
2024/01/09 08:02:57;;;;;;;22.80;10.90;;;;;;;-12.61;65.10;103256.71;107225;1257;97746;-63
2024/01/09 08:05:26;;;;;;;17.50;9.50;;;;;;;-12.52;64.92;103261.11;107250;1255;98433;-64
2024/01/09 08:07:55;;;;;;;21.60;9.50;;;;;;;-12.45;64.48;103256.76;107201;1257;111389;-63
2024/01/09 08:10:24;;;;;;;19.20;9.00;;;;;;;-12.37;65.00;103255.60;107210;1256;107436;-66
2024/01/09 08:12:52;;;;;;;22.20;8.40;;;;;;;-12.32;64.30;103254.79;107229;1256;107716;-64
2024/01/09 08:15:21;;;;;;;23.60;10.30;;;;;;;-12.31;63.61;103255.16;107192;1256;97882;-63
2024/01/09 08:17:50;;;;;;;23.60;10.50;;;;;;;-12.32;63.53;103257.36;107215;1256;97874;-64
2024/01/09 08:20:19;;;;;;;19.10;8.70;;;;;;;-12.28;63.44;103257.77;107293;1258;111037;-64
2024/01/09 08:22:48;;;;;;;20.90;9.10;;;;;;;-12.19;63.59;103249.65;107372;1254;106919;-63
2024/01/09 08:25:16;;;;;;;28.50;12.50;;;;;;;-12.10;62.79;103254.36;107345;1257;108364;-64
2024/01/09 08:27:45;;;;;;;28.50;13.00;;;;;;;-12.04;63.02;103255.88;107301;1256;97839;-64
2024/01/09 08:30:14;;;;;;;20.00;10.60;;;;;;;-11.82;62.90;103258.55;107187;1256;97724;-66
2024/01/09 08:32:43;;;;;;;19.70;10.00;;;;;;;-11.45;61.87;103269.11;107196;1256;112305;-63
2024/01/09 08:35:11;;;;;;;20.60;8.50;;;;;;;-10.89;60.47;103274.89;107237;1259;108039;-65
2024/01/09 08:37:40;;;;;;;19.90;8.90;;;;;;;-10.34;59.33;103273.02;107288;1257;107895;-63
2024/01/09 08:40:09;;;;;;;28.10;11.30;;;;;;;-9.72;59.43;103277.56;107323;1257;97862;-64
2024/01/09 08:42:37;;;;;;;32.40;11.40;;;;;;;-9.12;58.98;103276.69;107259;1255;97839;-64
2024/01/09 08:45:08;;;;;;;33.90;15.10;;;;;;;-8.60;57.74;103273.49;106541;1257;1043108;-65
2024/01/09 08:47:41;;;;;;;26.20;11.30;;;;;;;-8.29;55.45;103270.22;107335;1257;107358;-64
2024/01/09 08:50:09;;;;;;;33.40;13.10;;;;;;;-8.25;52.99;103269.14;107208;1257;106522;-65
2024/01/09 08:52:40;;;;;;;23.20;11.80;;;;;;;-8.29;51.88;103263.95;107247;1257;97834;-63
2024/01/09 08:55:09;;;;;;;20.80;12.00;;;;;;;-8.20;51.60;103262.66;107096;1257;97934;-64
2024/01/09 08:57:37;;;;;;;21.80;10.70;;;;;;;-7.94;51.97;103261.48;107260;1257;111351;-63
2024/01/09 09:00:07;;;;;;;23.40;10.30;;;;;;;-7.52;52.11;103261.78;107245;1257;108593;-66
2024/01/09 09:02:36;;;;;;;23.40;9.90;;;;;;;-7.10;51.86;103262.67;107237;1259;108490;-65
2024/01/09 09:05:06;;;;;;;24.40;10.50;;;;;;;-6.68;50.45;103258.80;107279;1257;97841;-64
2024/01/09 09:07:34;;;;;;;21.30;10.90;;;;;;;-6.43;49.66;103253.77;107135;1262;98405;-63
2024/01/09 09:10:03;;;;;;;26.70;11.60;;;;;;;-6.22;48.55;103250.21;107269;1255;111968;-65
2024/01/09 09:12:31;;;;;;;23.40;8.90;;;;;;;-5.95;48.48;103245.67;107294;1257;108666;-64
2024/01/09 09:15:02;;;;;;;15.80;8.80;;;;;;;-5.63;47.92;103248.92;107232;1257;108144;-62
2024/01/09 09:17:31;;;;;;;19.20;9.70;;;;;;;-5.42;46.92;103249.64;107259;1255;97749;-64
2024/01/09 09:20:00;;;;;;;20.30;9.30;;;;;;;-4.86;48.83;103245.67;107243;1257;97851;-63
2024/01/09 09:22:29;;;;;;;15.30;9.00;;;;;;;-4.49;46.72;103250.96;107251;1257;111750;-64
2024/01/09 09:24:58;;;;;;;16.70;9.00;;;;;;;-4.23;46.24;103250.08;107117;1261;108512;-64
2024/01/09 09:27:26;;;;;;;20.80;8.80;;;;;;;-3.95;46.61;103247.45;107253;1257;108664;-64
2024/01/09 09:29:56;;;;;;;17.20;9.40;;;;;;;-3.58;46.05;103254.19;107233;1255;97830;-65
2024/01/09 09:32:24;;;;;;;26.70;13.20;;;;;;;-3.35;44.85;103256.52;107248;1256;97828;-65
2024/01/09 09:34:52;;;;;;;21.50;11.60;;;;;;;-3.02;45.05;103255.59;107273;1255;112506;-64
2024/01/09 09:37:21;;;;;;;20.90;11.20;;;;;;;-2.62;45.78;103251.48;107303;1256;108183;-65
2024/01/09 09:39:50;;;;;;;19.30;10.80;;;;;;;-2.03;47.72;103247.76;107217;1257;108069;-64
2024/01/09 09:42:20;;;;;;;17.00;9.80;;;;;;;-1.51;46.77;103248.45;107201;1257;97902;-62
2024/01/09 09:44:55;;;;;;;21.00;10.70;;;;;;;-1.26;45.36;103246.36;107262;1256;98492;-63
2024/01/09 09:47:24;;;;;;;19.90;11.20;;;;;;;-1.23;42.61;103249.89;107348;1254;112216;-63
2024/01/09 09:49:55;;;;;;;22.00;11.90;;;;;;;-0.96;44.29;103253.25;107401;1257;108309;-63
2024/01/09 09:52:26;;;;;;;19.10;10.70;;;;;;;-0.55;44.24;103242.45;107337;1257;108168;-64
2024/01/09 09:54:56;;;;;;;18.20;10.50;;;;;;;-0.25;44.34;103233.20;107355;1257;98376;-64
2024/01/09 09:57:25;;;;;;;22.60;12.30;;;;;;;0.03;43.84;103229.73;107322;1256;97835;-66
2024/01/09 09:59:53;;;;;;;20.00;11.70;;;;;;;0.10;41.61;103231.27;107237;1256;112097;-66
2024/01/09 10:02:30;;;;;;;21.50;11.10;;;;;;;-0.30;38.41;103228.63;107272;1257;108241;-67
2024/01/09 10:05:07;;;;;;;20.70;10.70;;;;;;;-0.47;38.78;103233.27;107286;1256;108234;-65
2024/01/09 10:07:38;;;;;;;22.70;11.90;;;;;;;-0.33;41.26;103233.05;107241;1257;97947;-65
2024/01/09 10:10:08;;;;;;;30.10;14.40;;;;;;;-0.27;39.25;103229.85;107284;1257;97764;-64
2024/01/09 10:12:37;;;;;;;21.80;12.00;;;;;;;0.10;41.53;103226.33;107093;1257;112828;-65
2024/01/09 10:15:12;;;;;;;24.40;13.50;;;;;;;0.31;39.36;103219.53;107281;1256;107427;-66
2024/01/09 10:17:41;;;;;;;21.60;12.10;;;;;;;0.12;37.07;103222.43;107273;1257;107242;-62
2024/01/09 10:20:12;;;;;;;25.00;14.50;;;;;;;-0.71;35.86;103222.73;107209;1257;97857;-63
2024/01/09 10:22:41;;;;;;;22.50;13.30;;;;;;;-1.27;36.82;103226.65;107267;1257;97853;-64
2024/01/09 10:25:12;;;;;;;18.80;10.70;;;;;;;-1.25;37.99;103225.94;107264;1257;112129;-64
2024/01/09 10:27:41;;;;;;;19.90;11.60;;;;;;;-1.49;36.43;103219.58;107363;1257;108799;-65
2024/01/09 10:30:10;;;;;;;22.70;12.20;;;;;;;-1.57;36.91;103217.10;107130;1257;108294;-64
2024/01/09 10:32:40;;;;;;;20.20;11.50;;;;;;;-1.70;36.75;103217.27;107259;1257;97960;-64
2024/01/09 10:35:13;;;;;;;;;;;;;;;-1.68;37.74;103219.90;107268;1256;97726;-64
2024/01/09 10:37:44;;;;;;;22.90;12.50;;;;;;;-1.30;39.14;103218.55;107271;1256;111511;-63
2024/01/09 10:40:13;;;;;;;24.90;12.00;;;;;;;-0.59;39.73;103215.14;107234;1257;107092;-63
2024/01/09 10:42:46;;;;;;;25.00;13.10;;;;;;;-0.12;37.80;103215.86;107271;1257;108299;-63
2024/01/09 10:45:16;;;;;;;19.20;11.40;;;;;;;0.08;36.63;103216.30;107254;1257;97867;-64
2024/01/09 10:47:45;;;;;;;19.30;11.20;;;;;;;0.07;37.20;103211.17;107251;1257;98380;-64
2024/01/09 10:50:15;;;;;;;18.30;10.90;;;;;;;0.69;38.50;103204.07;107283;1257;110997;-65
2024/01/09 10:52:44;;;;;;;21.80;11.80;;;;;;;1.16;37.71;103195.34;107299;1257;107495;-64
2024/01/09 10:55:15;;;;;;;20.70;11.30;;;;;;;1.53;37.38;103198.84;107196;1256;108828;-66
2024/01/09 10:57:45;;;;;;;18.10;10.70;;;;;;;2.00;38.35;103193.48;107252;1256;97963;-64
2024/01/09 11:00:14;;;;;;;20.50;12.60;;;;;;;2.37;37.95;103189.41;107288;1257;97884;-65
2024/01/09 11:02:43;;;;;;;23.30;13.70;;;;;;;2.45;36.53;103186.64;107299;1259;110237;-64
2024/01/09 11:05:13;;;;;;;21.90;11.50;;;;;;;2.55;36.02;103188.80;107264;1257;108153;-63
2024/01/09 11:07:44;;;;;;;17.80;11.10;;;;;;;2.51;34.13;103191.50;107228;1256;108974;-63